Time;durP1;ratioP1;P1;durP2;ratioP2;P2;SDS_P1;SDS_P2;PMS_P1;PMS_P2;Temp;Humidity;BMP_temperature;BMP_pressure;BME280_temperature;BME280_humidity;BME280_pressure;Samples;Min_cycle;Max_cycle;Signal;HPM_P1;HPM_P2
2024/04/03 00:02:17;;;;;;;;;;;;;;;8.22;100.00;100268.06;5071854;28;20400;-74
2024/04/03 00:04:42;;;;;;;;;;;;;;;8.27;100.00;100268.31;5072458;28;19916;-74
2024/04/03 00:07:08;;;;;;;;;;;;;;;8.25;100.00;100261.47;5072721;28;19928;-74
2024/04/03 00:09:33;;;;;;;;;;;;;;;8.26;100.00;100266.66;5072812;28;19920;-74
2024/04/03 00:11:58;;;;;;;;;;;;;;;8.11;100.00;100266.75;5072473;28;19927;-74
2024/04/03 00:14:26;;;;;;;;;;;;;;;8.15;100.00;100259.97;5072699;28;19920;-74
2024/04/03 00:16:52;;;;;;;;;;;;;;;8.01;100.00;100267.09;5072382;28;19965;-72
2024/04/03 00:19:17;;;;;;;;;;;;;;;8.05;100.00;100256.78;5072085;28;19916;-73
2024/04/03 00:21:42;;;;;;;;;;;;;;;8.14;100.00;100255.63;5072504;28;20272;-73
2024/04/03 00:24:08;;;;;;;;;;;;;;;8.13;100.00;100253.13;5072162;28;19916;-74
2024/04/03 00:26:36;;;;;;;;;;;;;;;8.16;100.00;100252.75;5072239;28;19916;-73
2024/04/03 00:29:01;;;;;;;;;;;;;;;8.14;100.00;100246.75;5072282;28;19924;-73
2024/04/03 00:31:30;;;;;;;;;;;;;;;8.15;100.00;100249.25;5072289;28;20409;-74
2024/04/03 00:33:55;;;;;;;;;;;;;;;8.15;100.00;100245.72;5071860;28;20276;-74
2024/04/03 00:36:20;;;;;;;;;;;;;;;8.12;100.00;100246.13;5071915;28;20360;-73
2024/04/03 00:38:48;;;;;;;;;;;;;;;8.14;100.00;100242.22;5072465;28;20253;-73
2024/04/03 00:41:13;;;;;;;;;;;;;;;8.11;100.00;100244.47;5071467;28;19962;-74
2024/04/03 00:43:39;;;;;;;;;;;;;;;8.07;100.00;100238.66;5071756;28;19947;-74
2024/04/03 00:46:04;;;;;;;;;;;;;;;8.06;100.00;100242.38;5072894;28;20383;-74
2024/04/03 00:48:29;;;;;;;;;;;;;;;8.06;100.00;100242.38;5071545;28;19920;-74
2024/04/03 00:50:57;;;;;;;;;;;;;;;8.03;100.00;100232.88;5071354;28;19934;-74
2024/04/03 00:53:22;;;;;;;;;;;;;;;8.04;100.00;100239.06;5071686;28;19920;-73
2024/04/03 00:55:48;;;;;;;;;;;;;;;8.02;100.00;100233.91;5071706;28;19927;-74
2024/04/03 00:58:13;;;;;;;;;;;;;;;7.99;100.00;100231.59;5053478;28;19912;-73
2024/04/03 01:00:38;;;;;;;;;;;;;;;8.06;100.00;100230.81;5072012;28;19923;-74
2024/04/03 01:03:06;;;;;;;;;;;;;;;8.07;100.00;100224.44;5071230;28;19920;-74
2024/04/03 01:05:32;;;;;;;;;;;;;;;8.09;100.00;100227.75;5071728;28;20007;-74
2024/04/03 01:07:57;;;;;;;;;;;;;;;8.06;100.00;100217.44;5072047;28;19952;-74
2024/04/03 01:10:22;;;;;;;;;;;;;;;8.08;100.00;100223.44;5070613;28;20289;-75
2024/04/03 01:12:48;;;;;;;;;;;;;;;8.12;100.00;100227.38;5071504;28;19916;-74
2024/04/03 01:15:13;;;;;;;;;;;;;;;8.12;100.00;100220.16;5054298;28;19956;-74
2024/04/03 01:17:38;;;;;;;;;;;;;;;8.13;100.00;100226.31;5069791;28;19924;-73
2024/04/03 01:20:06;;;;;;;;;;;;;;;8.12;100.00;100222.00;5071466;28;19912;-74
2024/04/03 01:22:31;;;;;;;;;;;;;;;8.14;100.00;100218.09;5072349;28;20384;-73
2024/04/03 01:24:57;;;;;;;;;;;;;;;8.16;100.00;100213.38;5070841;28;19999;-74
2024/04/03 01:27:22;;;;;;;;;;;;;;;8.20;100.00;100221.84;5070855;28;19959;-73
2024/04/03 01:29:47;;;;;;;;;;;;;;;8.17;100.00;100217.72;5070714;28;19924;-74
2024/04/03 01:32:15;;;;;;;;;;;;;;;8.10;100.00;100221.38;5070049;28;19916;-75
2024/04/03 01:34:43;;;;;;;;;;;;;;;8.12;100.00;100219.34;5071250;28;19970;-74
2024/04/03 01:37:09;;;;;;;;;;;;;;;8.16;100.00;100213.38;5071265;28;20299;-74
2024/04/03 01:39:34;;;;;;;;;;;;;;;8.15;100.00;100213.56;5070532;28;19916;-74
2024/04/03 01:41:59;;;;;;;;;;;;;;;8.09;100.00;100217.03;5071766;28;20399;-74
2024/04/03 01:44:24;;;;;;;;;;;;;;;8.17;100.00;100212.34;5072625;28;19939;-74
2024/04/03 01:46:50;;;;;;;;;;;;;;;8.14;100.00;100206.53;5070208;28;19916;-74
2024/04/03 01:49:15;;;;;;;;;;;;;;;8.14;100.00;100201.16;5071370;28;19924;-74
2024/04/03 01:51:40;;;;;;;;;;;;;;;8.17;100.00;100195.41;5072921;28;19938;-74
2024/04/03 01:54:05;;;;;;;;;;;;;;;8.16;100.00;100205.34;5069940;28;20382;-74
2024/04/03 01:56:31;;;;;;;;;;;;;;;8.19;100.00;100204.94;5071020;28;20371;-74
2024/04/03 01:58:56;;;;;;;;;;;;;;;8.06;100.00;100199.47;5071634;28;20402;-74
2024/04/03 02:01:21;;;;;;;;;;;;;;;8.09;100.00;100187.56;5070380;28;20387;-74
2024/04/03 02:03:46;;;;;;;;;;;;;;;8.06;100.00;100193.31;5070981;28;19923;-74
2024/04/03 02:06:18;;;;;;;;;;;;;;;7.99;100.00;100194.06;5074975;28;19926;-74
2024/04/03 02:08:43;;;;;;;;;;;;;;;7.86;100.00;100189.44;5074883;28;20362;-74
2024/04/03 02:11:08;;;;;;;;;;;;;;;7.96;100.00;100186.41;5075603;28;19920;-73
2024/04/03 02:13:34;;;;;;;;;;;;;;;8.02;100.00;100182.97;5090394;28;19900;-74
2024/04/03 02:16:19;;;;;;;;;;;;;;;8.01;100.00;100183.19;5096909;28;19964;-74
2024/04/03 02:18:44;;;;;;;;;;;;;;;7.98;100.00;100184.38;5097067;28;19972;-74
2024/04/03 02:21:10;;;;;;;;;;;;;;;8.08;100.00;100177.84;5098351;28;19920;-76
2024/04/03 02:23:35;;;;;;;;;;;;;;;8.00;100.00;100170.78;5098776;28;19927;-73
2024/04/03 02:26:00;;;;;;;;;;;;;;;8.09;100.00;100179.50;5088503;28;19920;-75
2024/04/03 02:28:25;;;;;;;;;;;;;;;8.07;100.00;100179.69;5079335;28;19922;-75
2024/04/03 02:31:03;;;;;;;;;;;;;;;8.04;100.00;100172.03;5078030;28;20003;-75
2024/04/03 02:33:28;;;;;;;;;;;;;;;8.08;100.00;100177.84;5076359;28;19927;-75
2024/04/03 02:35:53;;;;;;;;;;;;;;;8.10;100.00;100181.16;5075922;28;19916;-75
2024/04/03 02:38:18;;;;;;;;;;;;;;;8.09;100.00;100176.81;5075624;28;20383;-75
2024/04/03 02:40:46;;;;;;;;;;;;;;;8.13;100.00;100178.06;5074750;28;19977;-74
2024/04/03 02:43:12;;;;;;;;;;;;;;;8.18;100.00;100167.59;5075910;28;19959;-75
2024/04/03 02:45:40;;;;;;;;;;;;;;;8.13;100.00;100161.97;5075231;28;19959;-74
2024/04/03 02:48:05;;;;;;;;;;;;;;;8.08;100.00;100154.53;5074578;28;19917;-74
2024/04/03 02:50:30;;;;;;;;;;;;;;;8.16;100.00;100150.88;5056626;28;19924;-74
2024/04/03 02:52:56;;;;;;;;;;;;;;;8.18;100.00;100149.66;5074700;28;19924;-74
2024/04/03 02:55:21;;;;;;;;;;;;;;;7.99;100.00;100145.81;5074160;28;19920;-74
2024/04/03 02:57:46;;;;;;;;;;;;;;;8.15;100.00;100138.47;5074948;28;19912;-74
2024/04/03 03:00:12;;;;;;;;;;;;;;;8.18;100.00;100140.78;5074831;28;19916;-74
2024/04/03 03:02:37;;;;;;;;;;;;;;;8.22;100.00;100146.56;5074319;28;19923;-74
2024/04/03 03:05:02;;;;;;;;;;;;;;;8.25;100.00;100138.13;5074341;28;19913;-74
2024/04/03 03:07:28;;;;;;;;;;;;;;;8.27;100.00;100142.28;5074674;28;19908;-74
2024/04/03 03:09:53;;;;;;;;;;;;;;;8.23;100.00;100138.34;5073259;28;20598;-74
2024/04/03 03:12:18;;;;;;;;;;;;;;;8.24;100.00;100131.09;5074832;28;20468;-74
2024/04/03 03:14:43;;;;;;;;;;;;;;;8.21;100.00;100134.22;5074286;28;20321;-74
2024/04/03 03:17:08;;;;;;;;;;;;;;;8.17;100.00;100131.91;5072524;28;19939;-74
2024/04/03 03:19:34;;;;;;;;;;;;;;;8.09;100.00;100120.53;5074443;28;19919;-74
2024/04/03 03:21:59;;;;;;;;;;;;;;;8.12;100.00;100112.09;5074503;28;19916;-74
2024/04/03 03:24:24;;;;;;;;;;;;;;;8.03;100.00;100114.94;5072999;28;20017;-74
2024/04/03 03:26:50;;;;;;;;;;;;;;;8.10;100.00;100108.78;5074029;28;19912;-75
2024/04/03 03:29:15;;;;;;;;;;;;;;;8.06;100.00;100102.16;5074375;28;19951;-74
2024/04/03 03:31:40;;;;;;;;;;;;;;;8.00;100.00;100090.38;5072496;28;19920;-75
2024/04/03 03:34:05;;;;;;;;;;;;;;;8.00;100.00;100088.53;5073768;28;19999;-74
2024/04/03 03:36:31;;;;;;;;;;;;;;;7.82;100.00;100080.19;5074334;28;19924;-74
2024/04/03 03:38:56;;;;;;;;;;;;;;;7.69;100.00;100081.75;5072200;28;19966;-75
2024/04/03 03:41:21;;;;;;;;;;;;;;;7.64;100.00;100068.13;5073180;28;19927;-74
2024/04/03 03:43:46;;;;;;;;;;;;;;;7.55;100.00;100069.31;5073823;28;19924;-74
2024/04/03 03:46:12;;;;;;;;;;;;;;;7.53;100.00;100071.38;5073145;28;19916;-75
2024/04/03 03:54:17;;;;;;;;;;;;;;;7.41;100.00;100057.69;5072046;28;19927;-75
2024/04/03 03:56:42;;;;;;;;;;;;;;;7.47;100.00;100061.44;5073520;28;20007;-75
2024/04/03 03:59:07;;;;;;;;;;;;;;;7.60;100.00;100072.22;5073132;28;19962;-75
2024/04/03 04:01:33;;;;;;;;;;;;;;;7.71;100.00;100074.38;5073236;28;19912;-75
2024/04/03 04:03:58;;;;;;;;;;;;;;;7.66;100.00;100071.44;5073402;28;19919;-74
2024/04/03 04:06:23;;;;;;;;;;;;;;;7.67;100.00;100069.59;5072924;28;19912;-77
2024/04/03 04:08:48;;;;;;;;;;;;;;;7.65;100.00;100069.78;5072977;28;19927;-76
2024/04/03 04:11:13;;;;;;;;;;;;;;;7.76;100.00;100072.94;5073370;28;19916;-78
2024/04/03 04:13:39;;;;;;;;;;;;;;;7.70;100.00;100066.50;5072573;28;19927;-76
2024/04/03 04:16:04;;;;;;;;;;;;;;;7.68;100.00;100063.19;5073483;28;19912;-75
2024/04/03 04:18:30;;;;;;;;;;;;;;;7.72;100.00;100061.78;5072439;28;19919;-76
2024/04/03 04:20:55;;;;;;;;;;;;;;;7.78;100.00;100073.56;5072650;28;20275;-76
2024/04/03 04:23:21;;;;;;;;;;;;;;;7.85;100.00;100063.72;5071939;28;20354;-74
2024/04/03 04:25:53;;;;;;;;;;;;;;;7.86;100.00;100060.81;5072045;28;19998;-74
2024/04/03 04:28:18;;;;;;;;;;;;;;;7.86;100.00;100066.19;5072582;28;20359;-76
2024/04/03 04:30:45;;;;;;;;;;;;;;;7.89;100.00;100064.97;5072610;28;19969;-75
2024/04/03 04:33:10;;;;;;;;;;;;;;;7.85;100.00;100058.34;5071871;28;19961;-75
2024/04/03 04:35:38;;;;;;;;;;;;;;;7.91;100.00;100070.13;5072803;28;19912;-74
2024/04/03 04:38:03;;;;;;;;;;;;;;;7.91;100.00;100067.44;5072558;28;20332;-75
2024/04/03 04:40:29;;;;;;;;;;;;;;;7.87;100.00;100067.03;5072212;28;19962;-75
2024/04/03 04:42:54;;;;;;;;;;;;;;;7.97;100.00;100070.16;5072172;28;19916;-74
2024/04/03 04:45:19;;;;;;;;;;;;;;;7.94;100.00;100065.22;5072164;28;19916;-74
2024/04/03 04:47:46;;;;;;;;;;;;;;;7.90;100.00;100066.63;5072037;28;19920;-75
2024/04/03 04:50:11;;;;;;;;;;;;;;;7.84;100.00;100059.38;5073168;28;20284;-74
2024/04/03 04:52:36;;;;;;;;;;;;;;;7.85;100.00;100053.81;5072388;28;19912;-74
2024/04/03 04:55:02;;;;;;;;;;;;;;;7.86;100.00;100054.66;5072401;28;19993;-74
2024/04/03 04:57:28;;;;;;;;;;;;;;;7.86;100.00;100046.59;5074223;28;19922;-75
2024/04/03 04:59:53;;;;;;;;;;;;;;;7.91;100.00;100054.03;5073117;28;19960;-74
2024/04/03 05:02:18;;;;;;;;;;;;;;;7.93;100.00;100050.16;5072487;28;19986;-74
2024/04/03 05:04:43;;;;;;;;;;;;;;;7.82;100.00;100042.66;5072986;28;19912;-74
2024/04/03 05:07:09;;;;;;;;;;;;;;;7.78;100.00;100036.03;5072684;28;19966;-74
2024/04/03 05:09:34;;;;;;;;;;;;;;;7.86;100.00;100043.94;5070907;28;19916;-74
2024/04/03 05:12:05;;;;;;;;;;;;;;;7.78;100.00;100039.56;5074180;28;19961;-74
2024/04/03 05:14:30;;;;;;;;;;;;;;;7.81;100.00;100041.00;5072897;28;19916;-75
2024/04/03 05:16:56;;;;;;;;;;;;;;;7.80;100.00;100026.78;5072431;28;19917;-74
2024/04/03 05:19:21;;;;;;;;;;;;;;;7.86;100.00;100034.03;5075067;28;19913;-74
2024/04/03 05:21:46;;;;;;;;;;;;;;;7.78;100.00;100025.31;5073643;28;19916;-74
2024/04/03 05:24:11;;;;;;;;;;;;;;;7.77;100.00;100019.16;5072211;28;19927;-74
2024/04/03 05:26:37;;;;;;;;;;;;;;;7.76;100.00;100011.31;5074362;28;19912;-74
2024/04/03 05:29:02;;;;;;;;;;;;;;;7.77;100.00;100012.94;5072674;28;20421;-74
2024/04/03 05:31:30;;;;;;;;;;;;;;;7.78;100.00;100011.94;5070944;28;19912;-73
2024/04/03 05:33:55;;;;;;;;;;;;;;;7.89;100.00;100000.66;5072358;28;20016;-74
2024/04/03 05:36:20;;;;;;;;;;;;;;;7.94;100.00;100002.72;5072914;28;20358;-74
2024/04/03 05:38:48;;;;;;;;;;;;;;;7.89;100.00;99997.97;5072413;28;20327;-74
2024/04/03 05:41:13;;;;;;;;;;;;;;;7.91;100.00;100003.97;5071627;28;19912;-74
2024/04/03 05:43:44;;;;;;;;;;;;;;;7.91;100.00;99998.59;5072675;28;19966;-75
2024/04/03 05:46:10;;;;;;;;;;;;;;;7.88;100.00;99996.31;5071274;28;20383;-74
2024/04/03 05:48:36;;;;;;;;;;;;;;;7.96;100.00;100000.69;5072551;28;19995;-74
2024/04/03 05:51:02;;;;;;;;;;;;;;;7.96;100.00;100000.69;5072018;28;19974;-74
2024/04/03 05:53:27;;;;;;;;;;;;;;;8.00;100.00;99992.03;5070518;28;19947;-74
2024/04/03 05:55:53;;;;;;;;;;;;;;;8.01;100.00;99993.69;5072146;28;20356;-74
2024/04/03 05:58:18;;;;;;;;;;;;;;;8.08;100.00;99998.25;5072194;28;19912;-74
2024/04/03 06:00:46;;;;;;;;;;;;;;;8.07;100.00;99996.59;5070883;28;19917;-74
2024/04/03 06:03:11;;;;;;;;;;;;;;;8.00;100.00;99996.56;5071068;28;20030;-73
2024/04/03 06:05:36;;;;;;;;;;;;;;;8.04;100.00;99993.28;5071771;28;20380;-74
2024/04/03 06:08:01;;;;;;;;;;;;;;;8.09;100.00;99989.19;5070345;28;20020;-74
2024/04/03 06:10:27;;;;;;;;;;;;;;;8.15;100.00;99996.41;5071672;28;19919;-74
2024/04/03 06:12:52;;;;;;;;;;;;;;;8.21;100.00;99995.59;5071406;28;19928;-74
2024/04/03 06:15:18;;;;;;;;;;;;;;;8.17;100.00;99991.66;5071797;28;20006;-75
2024/04/03 06:17:45;;;;;;;;;;;;;;;8.24;100.00;100003.25;5071848;28;20283;-74
2024/04/03 06:20:11;;;;;;;;;;;;;;;8.28;100.00;100003.66;5072325;28;19912;-75
2024/04/03 06:22:36;;;;;;;;;;;;;;;8.24;100.00;100002.41;5071707;28;19991;-74
2024/04/03 06:25:01;;;;;;;;;;;;;;;8.16;100.00;99990.84;5072078;28;19927;-74
2024/04/03 06:27:26;;;;;;;;;;;;;;;8.22;100.00;99994.56;5072359;28;20023;-74
2024/04/03 06:29:51;;;;;;;;;;;;;;;8.33;100.00;99993.16;5071162;28;19923;-74
2024/04/03 06:32:17;;;;;;;;;;;;;;;8.29;100.00;99984.69;5071001;28;19924;-74
2024/04/03 06:34:42;;;;;;;;;;;;;;;8.29;100.00;99982.00;5072324;28;19917;-74
2024/04/03 06:37:07;;;;;;;;;;;;;;;8.33;100.00;99980.56;5072610;28;19912;-74
2024/04/03 06:39:32;;;;;;;;;;;;;;;8.39;100.00;99978.91;5070556;28;19916;-74
2024/04/03 06:42:01;;;;;;;;;;;;;;;8.43;100.00;99979.34;5071216;28;19920;-74
2024/04/03 06:44:26;;;;;;;;;;;;;;;8.49;100.00;99982.06;5070759;28;19912;-74
2024/04/03 06:46:51;;;;;;;;;;;;;;;8.48;100.00;99976.88;5070817;28;19916;-74
2024/04/03 06:49:17;;;;;;;;;;;;;;;8.45;100.00;99961.19;5070974;28;20351;-73
2024/04/03 06:51:42;;;;;;;;;;;;;;;8.54;100.00;99976.06;5070795;28;19917;-74
2024/04/03 06:54:08;;;;;;;;;;;;;;;8.56;100.00;99968.66;5073967;28;20279;-73
2024/04/03 06:56:34;;;;;;;;;;;;;;;8.57;100.00;99970.31;5075119;28;20011;-74
2024/04/03 06:58:59;;;;;;;;;;;;;;;8.59;100.00;99972.78;5076488;28;19956;-74
2024/04/03 07:01:24;;;;;;;;;;;;;;;8.64;100.00;99971.16;5074340;28;20006;-74
2024/04/03 07:03:51;;;;;;;;;;;;;;;8.55;100.00;99969.69;5074563;28;19944;-74
2024/04/03 07:06:16;;;;;;;;;;;;;;;8.68;100.00;99976.06;5074563;28;19912;-74
2024/04/03 07:08:42;;;;;;;;;;;;;;;8.74;100.00;99972.59;5074244;28;19916;-74
2024/04/03 07:11:07;;;;;;;;;;;;;;;8.73;100.00;99960.19;5075281;28;19923;-74
2024/04/03 07:13:32;;;;;;;;;;;;;;;8.75;100.00;99968.88;5075561;28;19964;-75
2024/04/03 07:15:58;;;;;;;;;;;;;;;8.69;100.00;99969.69;5074920;28;20382;-74
2024/04/03 07:18:23;;;;;;;;;;;;;;;8.77;100.00;99966.81;5074597;28;20009;-74
2024/04/03 07:20:52;;;;;;;;;;;;;;;8.88;100.00;99971.53;5074712;28;19916;-74
2024/04/03 07:23:17;;;;;;;;;;;;;;;8.90;100.00;99968.66;5073907;28;20276;-74
2024/04/03 07:25:42;;;;;;;;;;;;;;;8.90;100.00;99968.66;5074621;28;20351;-72
2024/04/03 07:28:08;;;;;;;;;;;;;;;8.84;100.00;99967.59;5074031;28;20152;-75
2024/04/03 07:30:36;;;;;;;;;;;;;;;8.84;100.00;99964.94;5073557;28;20352;-74
2024/04/03 07:33:02;;;;;;;;;;;;;;;8.80;100.00;99958.34;5075435;28;20287;-74
2024/04/03 07:35:29;;;;;;;;;;;;;;;8.90;100.00;99963.28;5074335;28;19913;-74
2024/04/03 07:37:57;;;;;;;;;;;;;;;8.88;100.00;99960.81;5073043;28;19920;-73
2024/04/03 07:40:22;;;;;;;;;;;;;;;8.89;100.00;99959.78;5073679;28;20591;-73
2024/04/03 07:42:47;;;;;;;;;;;;;;;8.92;100.00;99962.03;5057151;28;19916;-73
2024/04/03 07:45:12;;;;;;;;;;;;;;;9.01;100.00;99959.97;5075128;28;19922;-74
2024/04/03 07:47:38;;;;;;;;;;;;;;;8.99;100.00;99962.03;5074533;28;19962;-74
2024/04/03 07:50:06;;;;;;;;;;;;;;;9.08;100.00;99962.63;5075078;28;20325;-74
2024/04/03 07:52:32;;;;;;;;;;;;;;;9.05;100.00;99955.00;5072884;28;19916;-74
2024/04/03 07:55:00;;;;;;;;;;;;;;;9.12;100.00;99955.81;5073588;28;20252;-75
2024/04/03 07:57:26;;;;;;;;;;;;;;;9.12;100.00;99960.34;5056518;28;19912;-74
2024/04/03 07:59:51;;;;;;;;;;;;;;;9.16;100.00;99962.44;5054759;28;19917;-74
2024/04/03 08:02:16;;;;;;;;;;;;;;;9.22;100.00;99961.56;5073653;28;19962;-74
2024/04/03 08:04:41;;;;;;;;;;;;;;;9.29;100.00;99958.88;5074068;28;19916;-74
2024/04/03 08:07:07;;;;;;;;;;;;;;;9.34;100.00;99966.31;5072807;28;19919;-74
2024/04/03 08:09:33;;;;;;;;;;;;;;;9.38;100.00;99960.31;5074432;28;19927;-74
2024/04/03 08:11:59;;;;;;;;;;;;;;;9.43;100.00;99962.34;5074247;28;20330;-74
2024/04/03 08:14:24;;;;;;;;;;;;;;;9.52;100.00;99966.47;5072393;28;20363;-74
2024/04/03 08:16:50;;;;;;;;;;;;;;;9.67;100.00;99957.31;5073222;28;19918;-74
2024/04/03 08:19:15;;;;;;;;;;;;;;;9.71;100.00;99953.13;5074494;28;20007;-74
2024/04/03 08:21:43;;;;;;;;;;;;;;;9.70;100.00;99956.91;5073832;28;19920;-74
2024/04/03 08:24:09;;;;;;;;;;;;;;;9.79;100.00;99958.28;5074183;28;19923;-74
2024/04/03 08:26:34;;;;;;;;;;;;;;;9.97;100.00;99962.13;5056382;28;19952;-74
2024/04/03 08:28:59;;;;;;;;;;;;;;;10.05;100.00;99958.38;5072753;28;19962;-74
2024/04/03 08:31:24;;;;;;;;;;;;;;;10.23;100.00;99946.88;5072803;28;19917;-75
2024/04/03 08:33:50;;;;;;;;;;;;;;;10.43;100.00;99949.47;5074667;28;19916;-74
2024/04/03 08:36:15;;;;;;;;;;;;;;;10.64;100.00;99959.03;5074500;28;19916;-74
2024/04/03 08:38:40;;;;;;;;;;;;;;;10.90;100.00;99965.25;5073127;28;20378;-74
2024/04/03 08:41:06;;;;;;;;;;;;;;;11.01;100.00;99963.69;5076299;28;20391;-74
2024/04/03 08:43:31;;;;;;;;;;;;;;;11.05;100.00;99963.03;5084624;28;19913;-73
2024/04/03 08:45:56;;;;;;;;;;;;;;;10.86;100.00;99958.63;5079789;28;20019;-74
2024/04/03 08:48:22;;;;;;;;;;;;;;;11.02;100.00;99958.06;5074930;28;19920;-74
2024/04/03 08:50:48;;;;;;;;;;;;;;;10.89;100.00;99964.41;5074817;28;19912;-75
2024/04/03 08:53:17;;;;;;;;;;;;;;;10.99;100.00;99965.78;5073902;28;19923;-75
2024/04/03 08:55:43;;;;;;;;;;;;;;;10.84;100.00;99971.50;5073442;28;19920;-74
2024/04/03 08:58:08;;;;;;;;;;;;;;;10.83;100.00;99964.47;5054986;28;19973;-73
2024/04/03 09:00:34;;;;;;;;;;;;;;;10.89;100.00;99966.28;5054375;28;20359;-74
2024/04/03 09:02:59;;;;;;;;;;;;;;;11.03;100.00;99965.09;5072648;28;20297;-74
2024/04/03 09:05:24;;;;;;;;;;;;;;;11.17;100.00;99968.50;5072236;28;19931;-74
2024/04/03 09:08:16;;;;;;;;;;;;;;;11.28;100.00;99961.56;5072784;28;19927;-74
2024/04/03 09:11:16;;;;;;;;;;;;;;;11.28;100.00;99953.47;5068749;28;19958;-74
2024/04/03 09:13:33;;;;;;;;;;;;;;;11.19;100.00;99954.78;5070345;28;19920;-74
2024/04/03 09:15:59;;;;;;;;;;;;;;;11.12;100.00;99938.72;5071198;28;19913;-74
2024/04/03 09:18:24;;;;;;;;;;;;;;;11.07;100.00;99947.47;5072493;28;19940;-74
2024/04/03 09:20:51;;;;;;;;;;;;;;;11.19;100.00;99946.72;5071297;28;19958;-74
2024/04/03 09:23:25;;;;;;;;;;;;;;;11.11;100.00;99949.72;5074075;28;20265;-74
2024/04/03 09:25:50;;;;;;;;;;;;;;;11.16;100.00;99941.78;5075719;28;19909;-74
2024/04/03 09:28:15;;;;;;;;;;;;;;;11.12;100.00;99935.19;5054921;28;20351;-74
2024/04/03 09:30:45;;;;;;;;;;;;;;;11.05;100.00;99938.78;5071037;28;19912;-74
2024/04/03 09:33:10;;;;;;;;;;;;;;;11.10;100.00;99943.50;5073641;28;20010;-74
2024/04/03 09:35:38;;;;;;;;;;;;;;;10.99;100.00;99945.03;5072143;28;19955;-74
2024/04/03 09:38:03;;;;;;;;;;;;;;;10.90;100.00;99943.69;5072629;28;19912;-74
2024/04/03 09:40:29;;;;;;;;;;;;;;;10.77;100.00;99950.03;5073485;28;19987;-74
2024/04/03 09:42:58;;;;;;;;;;;;;;;10.72;100.00;99942.59;5072485;28;20413;-74
2024/04/03 09:45:24;;;;;;;;;;;;;;;10.69;100.00;99951.13;5070842;28;19938;-74
2024/04/03 09:47:55;;;;;;;;;;;;;;;10.64;100.00;99929.41;5072169;28;20014;-74
2024/04/03 09:50:21;;;;;;;;;;;;;;;10.62;100.00;99936.88;5053267;28;20417;-74
2024/04/03 09:52:47;;;;;;;;;;;;;;;10.59;100.00;99938.16;5052541;28;19912;-75
2024/04/03 09:55:15;;;;;;;;;;;;;;;10.58;100.00;99930.31;5073286;28;19920;-74
2024/04/03 09:57:40;;;;;;;;;;;;;;;10.57;100.00;99934.03;5072385;28;20417;-74
2024/04/03 10:00:06;;;;;;;;;;;;;;;10.55;100.00;99931.56;5071726;28;19920;-74
2024/04/03 10:02:31;;;;;;;;;;;;;;;10.54;100.00;99929.09;5072964;28;20336;-74
2024/04/03 10:04:57;;;;;;;;;;;;;;;10.48;100.00;99929.97;5071586;28;19924;-74
2024/04/03 10:07:25;;;;;;;;;;;;;;;10.54;100.00;99931.78;5084777;28;19922;-74
2024/04/03 10:09:50;;;;;;;;;;;;;;;10.58;100.00;99924.94;5087196;28;19934;-75
2024/04/03 10:12:15;;;;;;;;;;;;;;;10.72;100.00;99929.16;5084691;28;19971;-74
2024/04/03 10:14:41;;;;;;;;;;;;;;;10.85;100.00;99935.44;5084929;28;19942;-74
2024/04/03 10:17:13;;;;;;;;;;;;;;;10.94;100.00;99934.13;5079838;28;19916;-74
2024/04/03 10:19:39;;;;;;;;;;;;;;;10.92;100.00;99936.22;5074844;28;19917;-74
2024/04/03 10:22:05;;;;;;;;;;;;;;;10.97;100.00;99938.25;5073837;28;19912;-74
2024/04/03 10:24:30;;;;;;;;;;;;;;;10.95;100.00;99934.94;5073614;28;19913;-74
2024/04/03 10:26:59;;;;;;;;;;;;;;;10.92;100.00;99936.22;5073946;28;19939;-75
2024/04/03 10:29:24;;;;;;;;;;;;;;;10.83;100.00;99927.59;5075657;28;20396;-74
2024/04/03 10:31:49;;;;;;;;;;;;;;;10.62;100.00;99931.50;5075272;28;19973;-74
2024/04/03 10:34:18;;;;;;;;;;;;;;;10.70;100.00;99925.84;5074203;28;20056;-74
2024/04/03 10:36:43;;;;;;;;;;;;;;;10.62;100.00;99931.50;5075152;28;20058;-74
2024/04/03 10:39:08;;;;;;;;;;;;;;;10.57;100.00;99934.84;5075455;28;20373;-73
2024/04/03 10:41:33;;;;;;;;;;;;;;;10.49;100.00;99928.94;5056927;28;20011;-73
2024/04/03 10:43:59;;;;;;;;;;;;;;;10.50;100.00;99919.81;5074373;28;20342;-73
2024/04/03 10:46:24;;;;;;;;;;;;;;;10.48;100.00;99930.81;5075689;28;20286;-73
2024/04/03 10:48:49;;;;;;;;;;;;;;;10.43;100.00;99920.69;5075183;28;19935;-73
2024/04/03 10:51:15;;;;;;;;;;;;;;;10.35;100.00;99925.47;5082007;28;19919;-74
2024/04/03 10:53:40;;;;;;;;;;;;;;;10.46;100.00;99922.13;5078759;28;19920;-74
2024/04/03 10:56:05;;;;;;;;;;;;;;;10.48;100.00;99927.28;5074328;28;19970;-74
2024/04/03 10:58:30;;;;;;;;;;;;;;;10.46;100.00;99931.00;5074410;28;19934;-74
2024/04/03 11:00:56;;;;;;;;;;;;;;;10.43;100.00;99917.97;5075000;28;20295;-74
2024/04/03 11:03:21;;;;;;;;;;;;;;;10.34;100.00;99927.34;5074662;28;20276;-73
2024/04/03 11:05:48;;;;;;;;;;;;;;;10.29;100.00;99932.56;5074448;28;19912;-73
2024/04/03 11:08:15;;;;;;;;;;;;;;;10.26;100.00;99927.59;5056205;28;20374;-74
2024/04/03 11:10:40;;;;;;;;;;;;;;;10.17;100.00;99924.34;5074692;28;20016;-73
2024/04/03 11:13:06;;;;;;;;;;;;;;;10.07;100.00;99922.13;5073803;28;20014;-74
2024/04/03 11:15:31;;;;;;;;;;;;;;;10.12;100.00;99922.31;5073400;28;19919;-73
2024/04/03 11:17:58;;;;;;;;;;;;;;;10.16;100.00;99931.63;5074982;28;20260;-74
2024/04/03 11:20:25;;;;;;;;;;;;;;;10.17;100.00;99935.13;5074133;28;20351;-74
2024/04/03 11:22:52;;;;;;;;;;;;;;;10.15;100.00;99932.66;5073585;28;19913;-75
2024/04/03 11:25:18;;;;;;;;;;;;;;;10.16;100.00;99922.69;5074804;28;19962;-74
2024/04/03 11:27:46;;;;;;;;;;;;;;;10.15;100.00;99927.28;5074082;28;20330;-74
2024/04/03 11:30:11;;;;;;;;;;;;;;;10.25;100.00;99931.34;5073247;28;20007;-73
2024/04/03 11:32:36;;;;;;;;;;;;;;;10.24;100.00;99935.91;5074662;28;19999;-74
2024/04/03 11:35:03;;;;;;;;;;;;;;;10.31;100.00;99930.47;5055525;28;19928;-74
2024/04/03 11:37:29;;;;;;;;;;;;;;;10.48;100.00;99930.81;5072345;28;20034;-74
2024/04/03 11:39:54;;;;;;;;;;;;;;;10.56;100.00;99932.41;5074013;28;19956;-74
2024/04/03 11:42:20;;;;;;;;;;;;;;;10.65;100.00;99936.44;5073642;28;19970;-75
2024/04/03 11:44:45;;;;;;;;;;;;;;;10.81;100.00;99939.63;5072371;28;19919;-75
2024/04/03 11:47:10;;;;;;;;;;;;;;;10.93;100.00;99940.56;5074510;28;19917;-75
2024/04/03 11:49:35;;;;;;;;;;;;;;;10.94;100.00;99944.91;5073092;28;19916;-75
2024/04/03 11:52:00;;;;;;;;;;;;;;;10.98;100.00;99943.41;5072381;28;19912;-75
2024/04/03 11:54:26;;;;;;;;;;;;;;;11.03;100.00;99943.56;5056326;28;19912;-74
2024/04/03 11:56:54;;;;;;;;;;;;;;;11.03;100.00;99940.06;5072982;28;19916;-74
2024/04/03 11:59:19;;;;;;;;;;;;;;;11.01;100.00;99944.84;5072540;28;19916;-75
2024/04/03 12:01:45;;;;;;;;;;;;;;;11.02;100.00;99938.41;5074389;28;19916;-74
2024/04/03 12:04:13;;;;;;;;;;;;;;;11.07;100.00;99931.31;5073601;28;19951;-75
2024/04/03 12:06:38;;;;;;;;;;;;;;;11.19;100.00;99934.09;5072431;28;20379;-75
2024/04/03 12:09:05;;;;;;;;;;;;;;;11.34;100.00;99939.09;5073660;28;19924;-74
2024/04/03 12:11:30;;;;;;;;;;;;;;;11.47;100.00;99926.53;5071897;28;19916;-75
2024/04/03 12:13:56;;;;;;;;;;;;;;;11.76;100.00;99934.88;5072823;28;20489;-74
2024/04/03 12:16:30;;;;;;;;;;;;;;;11.95;100.00;99938.34;5073788;28;19916;-74
2024/04/03 12:19:15;;;;;;;;;;;;;;;11.67;100.00;99943.25;5072622;28;19916;-74
2024/04/03 12:21:41;;;;;;;;;;;;;;;11.75;100.00;99927.81;5072819;28;19920;-74
2024/04/03 12:24:06;;;;;;;;;;;;;;;11.73;100.00;99933.47;5073984;28;19913;-74
2024/04/03 12:26:32;;;;;;;;;;;;;;;11.56;100.00;99930.53;5071977;28;20125;-74
2024/04/03 12:29:00;;;;;;;;;;;;;;;11.36;100.00;99937.00;5072727;28;19912;-74
2024/04/03 12:31:25;;;;;;;;;;;;;;;11.30;100.00;99932.50;5073245;28;20359;-74
2024/04/03 12:33:52;;;;;;;;;;;;;;;11.13;100.00;99915.28;5054217;28;19941;-74
2024/04/03 12:36:20;;;;;;;;;;;;;;;11.11;100.00;99920.91;5072607;28;19972;-74
2024/04/03 12:38:46;;;;;;;;;;;;;;;10.97;100.00;99930.97;5072954;28;19908;-74